Data for 10/18/2018

Time Sea-Level Adjusted Pressure Absolute Pressure Temperature Relative Humidity Dew Point   
(mb) (inHg) (mb) (inHg) (C) (F) (%) (C) (F)
00:05 1024 30.24 853 25.19 4.8 40.7 62 -1.8 28.8
00:10 1024 30.24 853 25.19 4.6 40.4 64 -1.6 29
00:15 1024 30.24 853 25.19 4.3 39.8 64 -1.8 28.7
00:20 1024 30.24 853 25.19 4 39.2 65 -1.9 28.5
00:25 1024 30.24 853 25.19 4 39.1 65 -2 28.4
00:30 1024 30.24 853 25.19 3.9 39 66 -1.9 28.6
00:35 1024 30.24 853 25.19 3.8 38.8 66 -2 28.4
00:40 1024 30.24 853 25.19 3.7 38.7 67 -1.9 28.5
00:45 1024 30.24 853 25.19 3.6 38.4 67 -2.1 28.2
00:50 1024 30.24 853 25.19 3.7 38.7 65 -2.2 28
00:55 1024 30.24 853 25.19 4 39.2 64 -2.1 28.2
01:00 1024 30.24 853 25.19 3.7 38.6 66 -2 28.4
01:05 1024 30.24 853 25.19 3.4 38.1 68 -1.9 28.6
01:10 1024 30.24 853 25.19 3.3 38 68 -2 28.3
01:15 1024 30.24 853 25.19 3.5 38.3 67 -2 28.4
01:20 1024 30.24 853 25.19 3.6 38.5 67 -1.9 28.5
01:25 1024 30.24 853 25.19 3.8 38.9 67 -1.7 28.9
01:30 1024 30.24 853 25.19 4.4 39.9 64 -1.8 28.8
01:35 1024 30.24 853 25.19 4.6 40.2 65 -1.5 29.3
01:40 1024 30.24 853 25.19 4.2 39.6 66 -1.5 29.3
01:45 1024 30.24 853 25.19 3.8 38.8 68 -1.6 29.2
01:50 1024 30.24 853 25.19 3.7 38.7 68 -1.7 29
01:55 1024 30.24 853 25.19 3.7 38.7 68 -1.7 29
02:00 1024 30.24 853 25.19 3.6 38.5 69 -1.6 29.1
02:05 1024 30.24 853 25.19 3.6 38.4 69 -1.6 29.1
02:10 1024 30.24 853 25.19 3.4 38.1 69 -1.7 28.9
02:15 1024 30.24 853 25.19 3.3 37.9 70 -1.7 28.9
02:20 1024 30.24 853 25.19 3.3 38 69 -1.8 28.7
02:25 1024 30.24 853 25.19 3.6 38.4 68 -1.7 28.9
02:30 1024 30.24 853 25.19 3.4 38.1 69 -1.7 28.9
02:35 1024 30.24 853 25.19 3.4 38.1 67 -2.1 28.2
02:40 1024 30.24 853 25.19 3.3 38 69 -1.9 28.6
02:45 1024 30.24 853 25.19 3.4 38.2 68 -1.9 28.6
02:50 1024 30.24 853 25.19 3.4 38.1 69 -1.8 28.8
02:55 1024 30.24 853 25.19 3.1 37.5 70 -1.8 28.7
03:00 1024 30.24 853 25.19 3 37.3 71 -1.8 28.7
03:05 1024 30.24 853 25.19 3.1 37.5 69 -2 28.4
03:10 1024 30.24 853 25.19 3.4 38.2 68 -1.9 28.6
03:15 1024 30.24 853 25.19 3.3 37.9 69 -1.9 28.6
03:20 1024 30.24 853 25.19 3.3 37.9 68 -2 28.4
03:25 1024 30.24 853 25.19 3.3 37.9 68 -2 28.3
03:30 1024 30.24 853 25.19 3 37.4 69 -2.1 28.2
03:35 1024 30.24 853 25.19 2.8 37 71 -1.9 28.5
03:40 1023 30.21 853 25.19 2.7 36.8 70 -2.2 28.1
03:45 1023 30.21 853 25.19 2.7 36.9 70 -2.2 28.1
03:50 1023 30.21 853 25.19 2.7 36.9 71 -2.1 28.2
03:55 1023 30.21 853 25.19 2.8 37.1 70 -2.2 28.1
04:00 1023 30.21 853 25.19 2.8 37.1 70 -2.1 28.1
04:05 1023 30.21 853 25.19 2.7 36.9 69 -2.3 27.9
04:10 1023 30.21 853 25.19 2.8 37 69 -2.3 27.8
04:15 1023 30.21 853 25.19 2.9 37.3 69 -2.3 27.9
04:20 1023 30.21 853 25.19 3 37.4 68 -2.3 27.9
04:25 1024 30.24 853 25.19 2.9 37.2 69 -2.2 28.1
04:30 1024 30.24 853 25.19 2.7 36.9 69 -2.3 27.9
04:35 1024 30.24 853 25.19 2.9 37.3 69 -2.2 28
04:40 1024 30.24 853 25.19 3.1 37.5 68 -2.3 27.9
04:45 1024 30.24 853 25.19 3.7 38.7 65 -2.3 27.9
04:50 1024 30.24 853 25.19 4 39.2 65 -2 28.3
04:55 1024 30.24 853 25.19 3.4 38.1 70 -1.6 29.2
05:00 1023 30.21 853 25.19 2.6 36.6 71 -2.1 28.2
05:05 1023 30.21 853 25.19 2.4 36.3 73 -2 28.3
05:10 1023 30.21 853 25.19 2 35.7 74 -2.2 28
05:15 1024 30.24 853 25.19 1.9 35.3 74 -2.3 27.8
05:20 1023 30.21 853 25.19 2 35.6 73 -2.3 27.8
05:25 1023 30.21 853 25.19 1.6 34.8 76 -2.2 28
05:30 1024 30.24 853 25.19 1.7 35.1 74 -2.5 27.5
05:35 1023 30.21 853 25.19 2.2 36 71 -2.5 27.5
05:40 1023 30.21 853 25.19 2.6 36.8 69 -2.5 27.6
05:45 1023 30.21 853 25.19 2.5 36.5 71 -2.2 28
05:50 1023 30.21 853 25.19 2.3 36.1 72 -2.3 27.8
05:55 1023 30.21 853 25.19 2.4 36.3 70 -2.5 27.4
06:00 1023 30.21 853 25.19 2.5 36.5 70 -2.5 27.6
06:05 1023 30.21 853 25.19 2.5 36.5 70 -2.4 27.6
06:10 1023 30.21 853 25.19 2.5 36.5 70 -2.4 27.6
06:15 1023 30.21 853 25.19 2.6 36.7 70 -2.4 27.7
06:20 1023 30.21 853 25.19 2.7 36.9 69 -2.4 27.6
06:25 1023 30.21 853 25.19 2.7 36.8 69 -2.4 27.7
06:30 1023 30.21 853 25.19 2.4 36.4 71 -2.3 27.8
06:35 1023 30.21 852 25.16 2 35.5 73 -2.4 27.7
06:40 1023 30.21 852 25.16 1.8 35.2 72 -2.6 27.2
06:45 1023 30.21 852 25.16 2.1 35.7 71 -2.6 27.3
06:50 1023 30.21 852 25.16 2.3 36.1 70 -2.6 27.3
06:55 1023 30.21 852 25.16 3.3 38 66 -2.3 27.8
07:00 1023 30.21 852 25.16 3.4 38.1 66 -2.3 27.9
07:05 1023 30.21 852 25.16 3.8 38.9 64 -2.4 27.7
07:10 1023 30.21 852 25.16 4 39.1 64 -2.3 27.8
07:15 1023 30.21 852 25.16 4.1 39.4 63 -2.3 27.9
07:20 1023 30.21 852 25.16 4 39.1 64 -2.3 27.9
07:25 1023 30.21 852 25.16 3.5 38.4 66 -2.2 28.1
07:30 1023 30.21 852 25.16 3 37.5 67 -2.4 27.6
07:35 1023 30.21 852 25.16 3 37.4 67 -2.5 27.5
07:40 1023 30.21 852 25.16 3.1 37.6 66 -2.6 27.4
07:45 1023 30.21 852 25.16 3.3 38 65 -2.6 27.3
07:50 1023 30.21 852 25.16 3.8 38.8 64 -2.4 27.6
07:55 1023 30.21 852 25.16 4.3 39.7 62 -2.5 27.5
08:00 1023 30.21 853 25.19 4.3 39.8 62 -2.3 27.8
08:05 1023 30.21 853 25.19 4.7 40.4 61 -2.2 28.1
08:10 1023 30.21 853 25.19 5 41.1 59 -2.3 27.8
08:15 1023 30.21 853 25.19 5.3 41.6 58 -2.2 28
08:20 1023 30.21 853 25.19 5.8 42.5 56 -2.2 28.1
08:25 1023 30.21 853 25.19 6.2 43.1 55 -2.2 28.1
08:30 1023 30.21 853 25.19 6.4 43.5 54 -2.2 28
08:35 1023 30.21 853 25.19 6.8 44.3 54 -1.8 28.7
08:40 1023 30.21 853 25.19 7.2 45 53 -1.7 28.9
08:45 1023 30.21 853 25.19 7.8 46.1 51 -1.8 28.8
08:50 1023 30.21 853 25.19 8.1 46.6 51 -1.4 29.4
08:55 1023 30.21 853 25.19 8.2 46.8 49 -1.8 28.8
09:00 1023 30.21 853 25.19 8.1 46.6 51 -1.3 29.6
09:05 1024 30.24 853 25.19 7.8 46.1 52 -1.4 29.5
09:10 1024 30.24 853 25.19 8 46.4 50 -1.9 28.7
09:15 1024 30.24 853 25.19 8.3 46.9 50 -1.4 29.4
09:20 1024 30.24 853 25.19 9 48.2 47 -1.8 28.8
09:25 1024 30.24 853 25.19 9.5 49.1 46 -1.5 29.4
09:30 1024 30.24 853 25.19 9.5 49.1 46 -1.5 29.4
09:35 1024 30.24 853 25.19 9.2 48.5 48 -1.2 29.8
09:40 1024 30.24 853 25.19 9 48.1 49 -1.1 30.1
09:45 1024 30.24 853 25.19 9 48.2 50 -0.9 30.5
09:50 1024 30.24 853 25.19 9.6 49.2 48 -0.8 30.6
09:55 1024 30.24 853 25.19 9.4 48.9 49 -0.8 30.6
10:00 1024 30.24 853 25.19 9.3 48.8 49 -0.8 30.6
10:05 1023 30.21 853 25.19 9.5 49.1 51 -0.1 31.9
10:10 1023 30.21 853 25.19 9.7 49.5 50 -0.3 31.5
10:15 1023 30.21 853 25.19 9.7 49.5 49 -0.4 31.2
10:20 1023 30.21 853 25.19 9.8 49.6 50 -0.1 31.8
10:25 1023 30.21 853 25.19 9.9 49.8 50 -0.1 31.8
10:30 1024 30.24 853 25.19 10.5 50.9 47 -0.2 31.7
10:35 1023 30.21 853 25.19 10.9 51.6 48 0.3 32.6
10:40 1023 30.21 853 25.19 11.1 52 47 0.2 32.3
10:45 1023 30.21 853 25.19 11.1 51.9 47 0.1 32.3
10:50 1023 30.21 853 25.19 11 51.8 46 -0.1 31.8
10:55 1023 30.21 853 25.19 11 51.9 46 -0.1 31.8
11:00 1023 30.21 852 25.16 11.2 52.1 47 0.2 32.4
11:05 1023 30.21 852 25.16 11.3 52.3 47 0.3 32.5
11:10 1023 30.21 852 25.16 12 53.5 44 0.2 32.4
11:15 1023 30.21 852 25.16 11.8 53.3 45 0.2 32.4
11:20 1023 30.21 852 25.16 11.7 53.1 46 0.4 32.8
11:25 1023 30.21 852 25.16 12.1 53.7 43 0 32.1
11:30 1023 30.21 852 25.16 12.3 54.1 42 -0.4 31.4
11:35 1023 30.21 852 25.16 12.5 54.6 41 -0.5 31.2
11:40 1023 30.21 852 25.16 12.6 54.6 41 -0.1 31.7
11:45 1023 30.21 852 25.16 12.7 54.8 42 0 32
11:50 1023 30.21 852 25.16 13 55.5 39 -0.5 31
11:55 1023 30.21 852 25.16 13 55.4 40 -0.1 31.8
12:00 1023 30.21 852 25.16 13.3 56 38 -0.5 31.1
12:05 1023 30.21 852 25.16 13.7 56.7 38 -0.4 31.2
12:10 1023 30.21 852 25.16 14.2 57.6 34 -1.4 29.5
12:15 1023 30.21 852 25.16 14.5 58.1 35 -0.5 31
12:20 1023 30.21 852 25.16 14.4 57.8 35 -0.8 30.6
12:25 1023 30.21 852 25.16 14.9 58.8 34 -0.6 31
12:30 1023 30.21 852 25.16 15 59.1 34 -0.8 30.6
12:35 1023 30.21 852 25.16 15.8 60.5 32 -0.8 30.5
12:40 1023 30.21 852 25.16 15.9 60.6 31 -1.2 29.8
12:45 1023 30.21 852 25.16 15.9 60.6 31 -1.1 30.1
12:50 1023 30.21 852 25.16 16.1 61 29 -1.6 29.1
12:55 1022 30.18 852 25.16 16.5 61.7 30 -1.1 30.1
13:00 1022 30.18 852 25.16 16.7 62 30 -1.1 30.1
13:05 1022 30.18 852 25.16 16.9 62.4 28 -1.5 29.3
13:10 1022 30.18 852 25.16 17.2 62.9 27 -1.8 28.7
13:15 1022 30.18 852 25.16 16.7 62 27 -2.1 28.1
13:20 1022 30.18 852 25.16 16.3 61.3 29 -1.8 28.8
13:25 1022 30.18 851 25.13 16.2 61.2 28 -2 28.3
13:30 1022 30.18 851 25.13 16.9 62.5 25 -3 26.6
13:35 1022 30.18 851 25.13 16.8 62.2 27 -2.2 28
13:40 1022 30.18 851 25.13 16.3 61.3 27 -2.6 27.4
13:45 1022 30.18 851 25.13 16.7 62.1 25 -3.6 25.6
13:50 1022 30.18 851 25.13 17.2 63 24 -3.2 26.3
13:55 1022 30.18 851 25.13 17.2 62.9 23 -3.9 25
14:00 1022 30.18 851 25.13 17.8 64.1 22 -4.3 24.3
14:05 1022 30.18 851 25.13 17.8 64 24 -3 26.6
14:10 1022 30.18 851 25.13 17.7 63.9 22 -4.1 24.6
14:15 1022 30.18 851 25.13 17.9 64.3 22 -4.2 24.4
14:20 1022 30.18 851 25.13 17.8 64.1 23 -3.7 25.3
14:25 1022 30.18 851 25.13 17.6 63.6 23 -3.8 25.2
14:30 1022 30.18 851 25.13 17.8 64 21 -4.6 23.7
14:35 1022 30.18 851 25.13 17.9 64.1 21 -4.6 23.7
14:40 1022 30.18 851 25.13 18.1 64.5 22 -4.1 24.6
14:45 1022 30.18 851 25.13 17.9 64.2 22 -3.8 25.2
14:50 1022 30.18 851 25.13 17.8 64.1 21 -4.4 24
14:55 1022 30.18 851 25.13 18.4 65.1 21 -4 24.9
15:00 1022 30.18 851 25.13 18.6 65.5 21 -4 24.9
15:05 1022 30.18 851 25.13 18.8 65.8 21 -4.1 24.6
15:10 1022 30.18 851 25.13 18.6 65.5 22 -3.6 25.5
15:15 1022 30.18 851 25.13 18.6 65.5 21 -3.9 24.9
15:20 1022 30.18 851 25.13 18.6 65.5 21 -3.9 25.1
15:25 1022 30.18 851 25.13 18.4 65.2 22 -3.6 25.5
15:30 1022 30.18 851 25.13 18.3 64.9 22 -3.6 25.5
15:35 1022 30.18 851 25.13 18.6 65.6 22 -3.3 26
15:40 1022 30.18 851 25.13 19 66.2 21 -3.4 25.9
15:45 1022 30.18 851 25.13 18.8 65.9 22 -3.3 26.1
15:50 1022 30.18 851 25.13 18.6 65.5 21 -3.7 25.3
15:55 1022 30.18 851 25.13 18.4 65.1 21 -4.3 24.3
16:00 1022 30.18 851 25.13 18.2 64.7 22 -4.1 24.7
16:05 1022 30.18 851 25.13 17.8 64 22 -3.9 25
16:10 1022 30.18 851 25.13 17.2 62.9 23 -3.9 25
16:15 1022 30.18 851 25.13 16.9 62.3 23 -4.1 24.6
16:20 1022 30.18 851 25.13 16.9 62.4 23 -4.2 24.4
16:25 1022 30.18 851 25.13 17 62.5 23 -4.4 24.1
16:30 1022 30.18 851 25.13 16.8 62.3 24 -4 24.7
16:35 1022 30.18 851 25.13 17.1 62.7 24 -3.6 25.5
16:40 1022 30.18 851 25.13 17.1 62.8 23 -4.1 24.6
16:45 1022 30.18 851 25.13 16.7 62 24 -4.1 24.6
16:50 1022 30.18 851 25.13 16.4 61.5 24 -4.3 24.2
16:55 1022 30.18 851 25.13 16.3 61.4 24 -4.2 24.4
17:00 1022 30.18 851 25.13 16.2 61.2 24 -4.3 24.3
17:05 1022 30.18 851 25.13 16.2 61.1 24 -4.2 24.5
17:10 1022 30.18 851 25.13 15.9 60.6 24 -4.3 24.2
17:15 1022 30.18 851 25.13 15.7 60.2 25 -4.4 24.1
17:20 1022 30.18 851 25.13 15.5 60 25 -4.3 24.2
17:25 1022 30.18 851 25.13 15.5 59.8 26 -3.7 25.3
17:30 1022 30.18 851 25.13 15.4 59.7 26 -4.1 24.6
17:35 1022 30.18 851 25.13 14.9 58.7 33 -1.2 29.8
17:40 1022 30.18 851 25.13 13.5 56.3 36 -1.4 29.5
17:45 1022 30.18 851 25.13 12.6 54.7 37 -1.8 28.8
17:50 1022 30.18 851 25.13 11.8 53.3 38 -1.8 28.8
17:55 1022 30.18 851 25.13 11.4 52.6 38 -2.3 27.9
18:00 1022 30.18 851 25.13 10.9 51.6 39 -2.4 27.6
18:05 1022 30.18 851 25.13 10.4 50.6 40 -2.5 27.5
18:10 1022 30.18 851 25.13 10 50 40 -2.8 27
18:15 1022 30.18 851 25.13 9.7 49.5 42 -2.7 27.2
18:20 1022 30.18 851 25.13 9.6 49.2 42 -2.8 27
18:25 1022 30.18 851 25.13 9.6 49.3 42 -2.7 27.2
18:30 1022 30.18 851 25.13 9.5 49.1 42 -2.7 27.1
18:35 1022 30.18 851 25.13 9.4 49 43 -2.6 27.3
18:40 1022 30.18 852 25.16 9.3 48.7 43 -2.5 27.5
18:45 1022 30.18 852 25.16 9 48.3 44 -2.7 27.2
18:50 1022 30.18 852 25.16 9 48.1 44 -2.7 27.1
18:55 1022 30.18 852 25.16 9 48.1 42 -3.1 26.4
19:00 1023 30.21 852 25.16 9 48.2 43 -3 26.6
19:05 1023 30.21 852 25.16 8.9 48 43 -3.1 26.3
19:10 1023 30.21 852 25.16 8.8 47.8 43 -3.2 26.3
19:15 1023 30.21 852 25.16 8.7 47.7 44 -3 26.6
19:20 1023 30.21 852 25.16 8.6 47.4 43 -3.3 26.1
19:25 1023 30.21 852 25.16 8.9 47.9 39 -4.2 24.4
19:30 1023 30.21 852 25.16 9.6 49.2 39 -3.7 25.4
19:35 1023 30.21 852 25.16 9.8 49.7 36 -4.4 24.1
19:40 1023 30.21 852 25.16 10.1 50.2 37 -4 24.8
19:45 1023 30.21 852 25.16 9.9 49.9 38 -3.7 25.3
19:50 1023 30.21 852 25.16 9.9 49.8 35 -4.8 23.3
19:55 1023 30.21 852 25.16 10.1 50.1 36 -4.3 24.3
20:00 1023 30.21 852 25.16 10 49.9 37 -4.2 24.4
20:05 1023 30.21 852 25.16 9.5 49.1 38 -4.1 24.6
20:10 1023 30.21 852 25.16 9.6 49.2 38 -4.2 24.5
20:15 1023 30.21 852 25.16 9.2 48.6 38 -4.3 24.3
20:20 1023 30.21 852 25.16 9 48.3 38 -4.4 24.1
20:25 1023 30.21 852 25.16 9 48.3 38 -4.7 23.6
20:30 1023 30.21 852 25.16 9.2 48.6 37 -4.7 23.5
20:35 1023 30.21 853 25.19 9.3 48.8 39 -3.9 25
20:40 1023 30.21 853 25.19 8.8 47.8 40 -4.2 24.5
20:45 1023 30.21 853 25.19 8.9 47.9 40 -4 24.7
20:50 1023 30.21 853 25.19 8.1 46.6 43 -3.7 25.3
20:55 1024 30.24 853 25.19 8 46.4 44 -3.5 25.8
21:00 1024 30.24 853 25.19 8.2 46.7 39 -4.8 23.3
21:05 1024 30.24 853 25.19 9.2 48.5 37 -4.6 23.8
21:10 1024 30.24 853 25.19 9.3 48.7 38 -4.2 24.4
21:15 1024 30.24 853 25.19 9.1 48.3 39 -4.2 24.4
21:20 1024 30.24 853 25.19 8.7 47.6 41 -3.9 25
21:25 1024 30.24 853 25.19 8.4 47 39 -4.8 23.3
21:30 1024 30.24 853 25.19 8.9 48.1 37 -5.1 22.9
21:35 1024 30.24 853 25.19 9.6 49.2 36 -4.6 23.7
21:40 1024 30.24 853 25.19 9.5 49.1 37 -4.5 23.9
21:45 1024 30.24 853 25.19 9.3 48.8 38 -4.3 24.3
21:50 1024 30.24 853 25.19 8.9 48.1 40 -4.1 24.6
21:55 1024 30.24 853 25.19 8.4 47.1 40 -4.2 24.4
22:00 1024 30.24 853 25.19 8.3 46.9 40 -4.4 24
22:05 1024 30.24 853 25.19 8.3 47 40 -4.3 24.2
22:10 1024 30.24 853 25.19 8.2 46.8 41 -4.1 24.7
22:15 1024 30.24 854 25.22 8.3 46.9 41 -4.2 24.5
22:20 1024 30.24 854 25.22 8.2 46.7 42 -4.1 24.6
22:25 1024 30.24 854 25.22 8.1 46.5 42 -4 24.9
22:30 1024 30.24 854 25.22 7.9 46.2 43 -4 24.8
22:35 1024 30.24 854 25.22 7.6 45.6 44 -3.8 25.2
22:40 1024 30.24 854 25.22 7.3 45.1 45 -3.9 24.9
22:45 1024 30.24 854 25.22 7.1 44.8 46 -3.7 25.3
22:50 1024 30.24 854 25.22 7 44.6 46 -3.9 25
22:55 1024 30.24 854 25.22 7.3 45.1 45 -4 24.8
23:00 1025 30.27 854 25.22 7.6 45.7 42 -4.3 24.2
23:05 1025 30.27 854 25.22 8.2 46.7 40 -4.5 23.9
23:10 1025 30.27 854 25.22 8.6 47.5 38 -4.7 23.5
23:15 1025 30.27 854 25.22 8.7 47.6 39 -4.3 24.2
23:20 1025 30.27 854 25.22 8.4 47.2 40 -4.5 24
23:25 1025 30.27 854 25.22 8.4 47 41 -4.1 24.7
23:30 1025 30.27 854 25.22 8.1 46.7 42 -4 24.8
23:35 1025 30.27 854 25.22 7.7 45.9 44 -3.9 25
23:40 1025 30.27 854 25.22 7.2 45 45 -3.9 24.9
23:45 1025 30.27 854 25.22 6.8 44.3 48 -3.3 26
23:50 1025 30.27 854 25.22 6.2 43.2 49 -3.8 25.2
23:55 1025 30.27 854 25.22 6.3 43.4 48 -3.9 25
24:00 1025 30.27 854 25.22 6.3 43.3 49 -3.7 25.4